<?xml version='1.0' encoding='UTF-8'?><gpx version="1.1" creator="JPX - https://github.com/jenetics/jpx" xmlns="http://www.topografix.com/GPX/1/1"><trk><trkseg><trkpt lat="43.4542323" lon="11.8696141"><ele>255.0</ele><time>2026-03-23T14:28:09.07Z</time></trkpt><trkpt lat="43.4541771" lon="11.8695462"><ele>255.0</ele><time>2026-03-23T14:28:10.098Z</time></trkpt><trkpt lat="43.4541244" lon="11.8694679"><ele>255.0</ele><time>2026-03-23T14:28:11.108Z</time></trkpt><trkpt lat="43.4540708" lon="11.8693956"><ele>255.0</ele><time>2026-03-23T14:28:12.1Z</time></trkpt><trkpt lat="43.4539681" lon="11.8692788"><ele>255.0</ele><time>2026-03-23T14:28:14.084Z</time></trkpt><trkpt lat="43.4538774" lon="11.869187"><ele>255.0</ele><time>2026-03-23T14:28:16.093Z</time></trkpt><trkpt lat="43.4538009" lon="11.8691174"><ele>255.0</ele><time>2026-03-23T14:28:18.084Z</time></trkpt><trkpt lat="43.4537256" lon="11.8690271"><ele>255.0</ele><time>2026-03-23T14:28:56.113Z</time></trkpt><trkpt lat="43.4536501" lon="11.8689189"><ele>255.0</ele><time>2026-03-23T14:28:58.078Z</time></trkpt><trkpt lat="43.4535992" lon="11.8688486"><ele>255.0</ele><time>2026-03-23T14:28:59.073Z</time></trkpt><trkpt lat="43.4535418" lon="11.8687844"><ele>255.0</ele><time>2026-03-23T14:29:00.07Z</time></trkpt><trkpt lat="43.4534872" lon="11.8687234"><ele>254.83333333333334</ele><time>2026-03-23T14:29:01.076Z</time></trkpt><trkpt lat="43.4534335" lon="11.8686595"><ele>254.66666666666669</ele><time>2026-03-23T14:29:02.076Z</time></trkpt><trkpt lat="43.4533743" lon="11.8686005"><ele>254.5</ele><time>2026-03-23T14:29:03.078Z</time></trkpt><trkpt lat="43.453328" lon="11.8685339"><ele>254.33333333333334</ele><time>2026-03-23T14:29:04.091Z</time></trkpt><trkpt lat="43.4532814" lon="11.8684689"><ele>254.16666666666669</ele><time>2026-03-23T14:29:05.079Z</time></trkpt><trkpt lat="43.4532248" lon="11.8683983"><ele>254.0</ele><time>2026-03-23T14:29:06.078Z</time></trkpt><trkpt lat="43.4531434" lon="11.8683079"><ele>254.0</ele><time>2026-03-23T14:29:07.095Z</time></trkpt><trkpt lat="43.4530451" lon="11.8681889"><ele>254.0</ele><time>2026-03-23T14:29:08.071Z</time></trkpt><trkpt lat="43.4529351" lon="11.8680489"><ele>254.0</ele><time>2026-03-23T14:29:09.064Z</time></trkpt><trkpt lat="43.4528192" lon="11.867894"><ele>254.0</ele><time>2026-03-23T14:29:10.076Z</time></trkpt><trkpt lat="43.4526871" lon="11.8677329"><ele>253.75</ele><time>2026-03-23T14:29:11.074Z</time></trkpt><trkpt lat="43.4525513" lon="11.8675835"><ele>253.5</ele><time>2026-03-23T14:29:12.076Z</time></trkpt><trkpt lat="43.4524466" lon="11.8674422"><ele>253.25</ele><time>2026-03-23T14:29:13.075Z</time></trkpt><trkpt lat="43.4523576" lon="11.8673323"><ele>253.0</ele><time>2026-03-23T14:29:14.099Z</time></trkpt><trkpt lat="43.4522775" lon="11.8672491"><ele>252.99999999999997</ele><time>2026-03-23T14:29:15.086Z</time></trkpt><trkpt lat="43.4522207" lon="11.8671745"><ele>253.0</ele><time>2026-03-23T14:29:16.089Z</time></trkpt><trkpt lat="43.4521752" lon="11.8670951"><ele>253.0</ele><time>2026-03-23T14:29:17.097Z</time></trkpt><trkpt lat="43.4521446" lon="11.8670059"><ele>253.0</ele><time>2026-03-23T14:29:18.099Z</time></trkpt><trkpt lat="43.452151" lon="11.866908"><ele>252.99999999999997</ele><time>2026-03-23T14:29:19.097Z</time></trkpt><trkpt lat="43.452183" lon="11.866804"><ele>253.0</ele><time>2026-03-23T14:29:20.098Z</time></trkpt><trkpt lat="43.4522454" lon="11.8666959"><ele>252.33333333333331</ele><time>2026-03-23T14:29:21.09Z</time></trkpt><trkpt lat="43.4523436" lon="11.8665612"><ele>251.66666666666669</ele><time>2026-03-23T14:29:22.106Z</time></trkpt><trkpt lat="43.4524835" lon="11.8664077"><ele>251.0</ele><time>2026-03-23T14:29:23.12Z</time></trkpt><trkpt lat="43.4526604" lon="11.8662578"><ele>251.0</ele><time>2026-03-23T14:29:24.089Z</time></trkpt><trkpt lat="43.4527894" lon="11.8661215"><ele>251.0</ele><time>2026-03-23T14:29:25.096Z</time></trkpt><trkpt lat="43.4528981" lon="11.8659966"><ele>251.0</ele><time>2026-03-23T14:29:26.096Z</time></trkpt><trkpt lat="43.4529994" lon="11.8658808"><ele>251.0</ele><time>2026-03-23T14:29:27.085Z</time></trkpt><trkpt lat="43.4530879" lon="11.8657993"><ele>251.20000000000002</ele><time>2026-03-23T14:29:28.106Z</time></trkpt><trkpt lat="43.4531554" lon="11.8657568"><ele>251.40000000000003</ele><time>2026-03-23T14:29:29.093Z</time></trkpt><trkpt lat="43.4532482" lon="11.8657275"><ele>251.6</ele><time>2026-03-23T14:29:30.104Z</time></trkpt><trkpt lat="43.4533578" lon="11.8657028"><ele>251.8</ele><time>2026-03-23T14:29:31.093Z</time></trkpt><trkpt lat="43.4534531" lon="11.8656526"><ele>252.0</ele><time>2026-03-23T14:29:32.098Z</time></trkpt><trkpt lat="43.4535176" lon="11.865544"><ele>252.0</ele><time>2026-03-23T14:29:33.102Z</time></trkpt><trkpt lat="43.4535569" lon="11.8653952"><ele>252.0</ele><time>2026-03-23T14:29:34.094Z</time></trkpt><trkpt lat="43.4536012" lon="11.8652372"><ele>252.0</ele><time>2026-03-23T14:29:35.09Z</time></trkpt><trkpt lat="43.4536545" lon="11.8650803"><ele>252.0</ele><time>2026-03-23T14:29:36.089Z</time></trkpt><trkpt lat="43.4537286" lon="11.8649271"><ele>253.0</ele><time>2026-03-23T14:29:37.1Z</time></trkpt><trkpt lat="43.45384" lon="11.864784"><ele>254.0</ele><time>2026-03-23T14:29:38.086Z</time></trkpt><trkpt lat="43.4539843" lon="11.8646509"><ele>255.0</ele><time>2026-03-23T14:29:39.088Z</time></trkpt><trkpt lat="43.4541384" lon="11.8645221"><ele>255.0</ele><time>2026-03-23T14:29:40.09Z</time></trkpt><trkpt lat="43.4542919" lon="11.8643959"><ele>255.0</ele><time>2026-03-23T14:29:41.092Z</time></trkpt><trkpt lat="43.4544416" lon="11.8642649"><ele>255.0</ele><time>2026-03-23T14:29:42.085Z</time></trkpt><trkpt lat="43.4545859" lon="11.8641428"><ele>254.33333333333331</ele><time>2026-03-23T14:29:43.094Z</time></trkpt><trkpt lat="43.4547257" lon="11.8640326"><ele>253.66666666666666</ele><time>2026-03-23T14:29:44.089Z</time></trkpt><trkpt lat="43.4548655" lon="11.8639177"><ele>253.0</ele><time>2026-03-23T14:29:45.101Z</time></trkpt><trkpt lat="43.454995" lon="11.8638025"><ele>253.0</ele><time>2026-03-23T14:29:46.091Z</time></trkpt><trkpt lat="43.4551317" lon="11.8636991"><ele>253.0</ele><time>2026-03-23T14:29:47.091Z</time></trkpt><trkpt lat="43.4552771" lon="11.8635929"><ele>253.0</ele><time>2026-03-23T14:29:48.1Z</time></trkpt><trkpt lat="43.4554135" lon="11.8634851"><ele>252.33333333333331</ele><time>2026-03-23T14:29:49.092Z</time></trkpt><trkpt lat="43.4555534" lon="11.8633894"><ele>251.66666666666669</ele><time>2026-03-23T14:29:50.096Z</time></trkpt><trkpt lat="43.4556906" lon="11.8632904"><ele>251.0</ele><time>2026-03-23T14:29:51.096Z</time></trkpt><trkpt lat="43.4558329" lon="11.8631939"><ele>251.0</ele><time>2026-03-23T14:29:52.096Z</time></trkpt><trkpt lat="43.4559794" lon="11.8630972"><ele>251.0</ele><time>2026-03-23T14:29:53.099Z</time></trkpt><trkpt lat="43.4561464" lon="11.8630015"><ele>251.0</ele><time>2026-03-23T14:29:54.107Z</time></trkpt><trkpt lat="43.4563604" lon="11.8628916"><ele>251.0</ele><time>2026-03-23T14:29:55.097Z</time></trkpt><trkpt lat="43.4565895" lon="11.8627656"><ele>251.0</ele><time>2026-03-23T14:29:56.14Z</time></trkpt><trkpt lat="43.4568285" lon="11.8626343"><ele>251.0</ele><time>2026-03-23T14:29:57.099Z</time></trkpt><trkpt lat="43.4570544" lon="11.8625207"><ele>251.0</ele><time>2026-03-23T14:29:58.096Z</time></trkpt><trkpt lat="43.4572676" lon="11.8624169"><ele>250.33333333333334</ele><time>2026-03-23T14:29:59.08Z</time></trkpt><trkpt lat="43.4574556" lon="11.8623328"><ele>249.66666666666669</ele><time>2026-03-23T14:30:00.088Z</time></trkpt><trkpt lat="43.4576208" lon="11.8622477"><ele>249.0</ele><time>2026-03-23T14:30:01.075Z</time></trkpt><trkpt lat="43.4577833" lon="11.8621804"><ele>249.0</ele><time>2026-03-23T14:30:02.079Z</time></trkpt><trkpt lat="43.457931" lon="11.8621146"><ele>249.0</ele><time>2026-03-23T14:30:03.087Z</time></trkpt><trkpt lat="43.4580687" lon="11.8620582"><ele>249.0</ele><time>2026-03-23T14:30:04.086Z</time></trkpt><trkpt lat="43.4581883" lon="11.8620105"><ele>249.0</ele><time>2026-03-23T14:30:05.086Z</time></trkpt><trkpt lat="43.4582973" lon="11.8619624"><ele>248.79999999999998</ele><time>2026-03-23T14:30:06.088Z</time></trkpt><trkpt lat="43.4584012" lon="11.8619221"><ele>248.59999999999997</ele><time>2026-03-23T14:30:07.084Z</time></trkpt><trkpt lat="43.4584985" lon="11.8618846"><ele>248.4</ele><time>2026-03-23T14:30:08.102Z</time></trkpt><trkpt lat="43.4585896" lon="11.8618561"><ele>248.2</ele><time>2026-03-23T14:30:09.086Z</time></trkpt><trkpt lat="43.458661" lon="11.8618296"><ele>248.0</ele><time>2026-03-23T14:30:10.085Z</time></trkpt><trkpt lat="43.4587488" lon="11.8618025"><ele>248.33333333333334</ele><time>2026-03-23T14:30:12.091Z</time></trkpt><trkpt lat="43.45882" lon="11.8618089"><ele>248.66666666666669</ele><time>2026-03-23T14:30:15.1Z</time></trkpt><trkpt lat="43.4588901" lon="11.8618352"><ele>249.0</ele><time>2026-03-23T14:30:18.097Z</time></trkpt><trkpt lat="43.4589551" lon="11.8618753"><ele>249.33333333333331</ele><time>2026-03-23T14:30:20.093Z</time></trkpt><trkpt lat="43.4590471" lon="11.8619747"><ele>249.66666666666666</ele><time>2026-03-23T14:30:22.087Z</time></trkpt><trkpt lat="43.4591028" lon="11.8620295"><ele>250.0</ele><time>2026-03-23T14:30:23.102Z</time></trkpt><trkpt lat="43.4591799" lon="11.8620733"><ele>250.0</ele><time>2026-03-23T14:30:24.101Z</time></trkpt><trkpt lat="43.4592673" lon="11.862093"><ele>250.0</ele><time>2026-03-23T14:30:25.094Z</time></trkpt><trkpt lat="43.4593598" lon="11.8620705"><ele>250.0</ele><time>2026-03-23T14:30:26.118Z</time></trkpt><trkpt lat="43.4594605" lon="11.8620094"><ele>250.0</ele><time>2026-03-23T14:30:27.097Z</time></trkpt><trkpt lat="43.4595501" lon="11.8619104"><ele>250.0</ele><time>2026-03-23T14:30:28.11Z</time></trkpt><trkpt lat="43.4596203" lon="11.8617761"><ele>250.0</ele><time>2026-03-23T14:30:29.081Z</time></trkpt><trkpt lat="43.4596711" lon="11.8616263"><ele>250.0</ele><time>2026-03-23T14:30:30.102Z</time></trkpt><trkpt lat="43.4596946" lon="11.861471"><ele>250.0</ele><time>2026-03-23T14:30:31.08Z</time></trkpt><trkpt lat="43.4596903" lon="11.8613252"><ele>250.0</ele><time>2026-03-23T14:30:32.101Z</time></trkpt><trkpt lat="43.4596396" lon="11.8611971"><ele>250.0</ele><time>2026-03-23T14:30:33.085Z</time></trkpt><trkpt lat="43.45955" lon="11.8610895"><ele>249.5</ele><time>2026-03-23T14:30:34.095Z</time></trkpt><trkpt lat="43.4594434" lon="11.8610106"><ele>249.0</ele><time>2026-03-23T14:30:35.076Z</time></trkpt><trkpt lat="43.45934" lon="11.8609463"><ele>248.5</ele><time>2026-03-23T14:30:36.09Z</time></trkpt><trkpt lat="43.4592476" lon="11.8608521"><ele>248.0</ele><time>2026-03-23T14:30:37.088Z</time></trkpt><trkpt lat="43.4591699" lon="11.8607277"><ele>248.0</ele><time>2026-03-23T14:30:38.112Z</time></trkpt><trkpt lat="43.4591247" lon="11.8605663"><ele>248.0</ele><time>2026-03-23T14:30:39.098Z</time></trkpt><trkpt lat="43.4590936" lon="11.86038"><ele>248.0</ele><time>2026-03-23T14:30:40.085Z</time></trkpt><trkpt lat="43.4590538" lon="11.8601871"><ele>248.0</ele><time>2026-03-23T14:30:41.093Z</time></trkpt><trkpt lat="43.4590156" lon="11.8600184"><ele>247.83333333333334</ele><time>2026-03-23T14:30:42.097Z</time></trkpt><trkpt lat="43.4589786" lon="11.8598763"><ele>247.66666666666669</ele><time>2026-03-23T14:30:43.097Z</time></trkpt><trkpt lat="43.4589493" lon="11.8597533"><ele>247.5</ele><time>2026-03-23T14:30:44.094Z</time></trkpt><trkpt lat="43.4589228" lon="11.8596395"><ele>247.33333333333331</ele><time>2026-03-23T14:30:45.098Z</time></trkpt><trkpt lat="43.4588961" lon="11.8595421"><ele>247.16666666666666</ele><time>2026-03-23T14:30:46.097Z</time></trkpt><trkpt lat="43.4588719" lon="11.8594446"><ele>247.0</ele><time>2026-03-23T14:30:47.104Z</time></trkpt><trkpt lat="43.4588553" lon="11.8593412"><ele>247.16666666666666</ele><time>2026-03-23T14:30:48.095Z</time></trkpt><trkpt lat="43.4588554" lon="11.859227"><ele>247.33333333333331</ele><time>2026-03-23T14:30:49.101Z</time></trkpt><trkpt lat="43.4588806" lon="11.8591118"><ele>247.5</ele><time>2026-03-23T14:30:50.099Z</time></trkpt><trkpt lat="43.4589096" lon="11.8589985"><ele>247.66666666666669</ele><time>2026-03-23T14:30:51.109Z</time></trkpt><trkpt lat="43.4589131" lon="11.8588834"><ele>247.83333333333334</ele><time>2026-03-23T14:30:52.103Z</time></trkpt><trkpt lat="43.458879" lon="11.8587815"><ele>248.0</ele><time>2026-03-23T14:30:53.095Z</time></trkpt><trkpt lat="43.4588176" lon="11.8587099"><ele>248.2</ele><time>2026-03-23T14:30:54.098Z</time></trkpt><trkpt lat="43.4587391" lon="11.85865"><ele>248.4</ele><time>2026-03-23T14:30:55.103Z</time></trkpt><trkpt lat="43.4586722" lon="11.8585668"><ele>248.59999999999997</ele><time>2026-03-23T14:30:56.104Z</time></trkpt><trkpt lat="43.4586257" lon="11.858451"><ele>248.79999999999998</ele><time>2026-03-23T14:30:57.118Z</time></trkpt><trkpt lat="43.4585932" lon="11.8583147"><ele>249.0</ele><time>2026-03-23T14:30:58.099Z</time></trkpt><trkpt lat="43.45856" lon="11.8581664"><ele>249.0</ele><time>2026-03-23T14:30:59.089Z</time></trkpt><trkpt lat="43.4585309" lon="11.8580088"><ele>249.0</ele><time>2026-03-23T14:31:00.098Z</time></trkpt><trkpt lat="43.4584987" lon="11.8578411"><ele>249.0</ele><time>2026-03-23T14:31:01.097Z</time></trkpt><trkpt lat="43.458467" lon="11.857674"><ele>249.0</ele><time>2026-03-23T14:31:02.099Z</time></trkpt><trkpt lat="43.4584335" lon="11.857499"><ele>249.0</ele><time>2026-03-23T14:31:03.088Z</time></trkpt><trkpt lat="43.4584012" lon="11.8573167"><ele>249.0</ele><time>2026-03-23T14:31:04.101Z</time></trkpt><trkpt lat="43.4583683" lon="11.8571319"><ele>249.0</ele><time>2026-03-23T14:31:05.101Z</time></trkpt><trkpt lat="43.4583346" lon="11.8569486"><ele>249.0</ele><time>2026-03-23T14:31:06.094Z</time></trkpt><trkpt lat="43.4583" lon="11.8567687"><ele>250.25</ele><time>2026-03-23T14:31:07.105Z</time></trkpt><trkpt lat="43.458268" lon="11.8565913"><ele>251.5</ele><time>2026-03-23T14:31:08.11Z</time></trkpt><trkpt lat="43.4582262" lon="11.856417"><ele>252.75</ele><time>2026-03-23T14:31:09.106Z</time></trkpt><trkpt lat="43.4581913" lon="11.856218"><ele>254.0</ele><time>2026-03-23T14:31:10.099Z</time></trkpt><trkpt lat="43.4581573" lon="11.8560089"><ele>254.33333333333334</ele><time>2026-03-23T14:31:11.104Z</time></trkpt><trkpt lat="43.4581206" lon="11.8557938"><ele>254.66666666666669</ele><time>2026-03-23T14:31:12.101Z</time></trkpt><trkpt lat="43.4581028" lon="11.8555826"><ele>255.0</ele><time>2026-03-23T14:31:13.104Z</time></trkpt><trkpt lat="43.4580982" lon="11.8553778"><ele>255.0</ele><time>2026-03-23T14:31:14.087Z</time></trkpt><trkpt lat="43.4581272" lon="11.8551878"><ele>255.0</ele><time>2026-03-23T14:31:15.093Z</time></trkpt><trkpt lat="43.4581656" lon="11.8549954"><ele>255.0</ele><time>2026-03-23T14:31:16.103Z</time></trkpt><trkpt lat="43.4582195" lon="11.854807"><ele>255.0</ele><time>2026-03-23T14:31:17.093Z</time></trkpt><trkpt lat="43.4582823" lon="11.8546196"><ele>253.33333333333331</ele><time>2026-03-23T14:31:18.101Z</time></trkpt><trkpt lat="43.4583581" lon="11.8544325"><ele>251.66666666666666</ele><time>2026-03-23T14:31:19.099Z</time></trkpt><trkpt lat="43.4584357" lon="11.8542508"><ele>250.0</ele><time>2026-03-23T14:31:20.094Z</time></trkpt><trkpt lat="43.4585138" lon="11.8540713"><ele>249.5</ele><time>2026-03-23T14:31:21.096Z</time></trkpt><trkpt lat="43.4585826" lon="11.8539069"><ele>249.0</ele><time>2026-03-23T14:31:22.103Z</time></trkpt><trkpt lat="43.458649" lon="11.8537624"><ele>248.5</ele><time>2026-03-23T14:31:23.101Z</time></trkpt><trkpt lat="43.4587037" lon="11.8536185"><ele>248.0</ele><time>2026-03-23T14:31:24.086Z</time></trkpt><trkpt lat="43.4587652" lon="11.8534677"><ele>247.75</ele><time>2026-03-23T14:31:25.094Z</time></trkpt><trkpt lat="43.4588353" lon="11.8533188"><ele>247.5</ele><time>2026-03-23T14:31:26.099Z</time></trkpt><trkpt lat="43.4589047" lon="11.8531699"><ele>247.25</ele><time>2026-03-23T14:31:27.096Z</time></trkpt><trkpt lat="43.4589672" lon="11.8530174"><ele>247.0</ele><time>2026-03-23T14:31:28.122Z</time></trkpt><trkpt lat="43.4590314" lon="11.8528678"><ele>247.0</ele><time>2026-03-23T14:31:29.102Z</time></trkpt><trkpt lat="43.4590963" lon="11.8527139"><ele>247.0</ele><time>2026-03-23T14:31:30.096Z</time></trkpt><trkpt lat="43.4591616" lon="11.8525607"><ele>247.0</ele><time>2026-03-23T14:31:31.098Z</time></trkpt><trkpt lat="43.4592271" lon="11.8524184"><ele>247.0</ele><time>2026-03-23T14:31:32.094Z</time></trkpt><trkpt lat="43.4592921" lon="11.8522766"><ele>247.0</ele><time>2026-03-23T14:31:33.098Z</time></trkpt><trkpt lat="43.4593563" lon="11.8521402"><ele>247.0</ele><time>2026-03-23T14:31:34.102Z</time></trkpt><trkpt lat="43.4594255" lon="11.852011"><ele>247.0</ele><time>2026-03-23T14:31:35.104Z</time></trkpt><trkpt lat="43.4594985" lon="11.8518885"><ele>247.0</ele><time>2026-03-23T14:31:36.101Z</time></trkpt><trkpt lat="43.4595805" lon="11.8517744"><ele>247.25</ele><time>2026-03-23T14:31:37.096Z</time></trkpt><trkpt lat="43.45967" lon="11.8516685"><ele>247.5</ele><time>2026-03-23T14:31:38.102Z</time></trkpt><trkpt lat="43.4597667" lon="11.8515732"><ele>247.75</ele><time>2026-03-23T14:31:39.101Z</time></trkpt><trkpt lat="43.4598688" lon="11.8514859"><ele>248.0</ele><time>2026-03-23T14:31:40.096Z</time></trkpt><trkpt lat="43.4599809" lon="11.8514074"><ele>248.0</ele><time>2026-03-23T14:31:41.099Z</time></trkpt><trkpt lat="43.4601014" lon="11.8513371"><ele>248.0</ele><time>2026-03-23T14:31:42.096Z</time></trkpt><trkpt lat="43.4602222" lon="11.8512772"><ele>248.0</ele><time>2026-03-23T14:31:43.106Z</time></trkpt><trkpt lat="43.4603464" lon="11.8512291"><ele>248.0</ele><time>2026-03-23T14:31:44.101Z</time></trkpt><trkpt lat="43.4604707" lon="11.8511885"><ele>247.5</ele><time>2026-03-23T14:31:45.101Z</time></trkpt><trkpt lat="43.4605962" lon="11.8511575"><ele>247.0</ele><time>2026-03-23T14:31:46.099Z</time></trkpt><trkpt lat="43.4607167" lon="11.8511368"><ele>246.5</ele><time>2026-03-23T14:31:47.101Z</time></trkpt><trkpt lat="43.4608242" lon="11.8511186"><ele>246.0</ele><time>2026-03-23T14:31:48.104Z</time></trkpt><trkpt lat="43.4609246" lon="11.8510975"><ele>246.0</ele><time>2026-03-23T14:31:49.11Z</time></trkpt><trkpt lat="43.4610215" lon="11.8510742"><ele>246.00000000000003</ele><time>2026-03-23T14:31:50.106Z</time></trkpt><trkpt lat="43.461116" lon="11.8510579"><ele>246.00000000000003</ele><time>2026-03-23T14:31:51.103Z</time></trkpt><trkpt lat="43.4612057" lon="11.8510383"><ele>246.0</ele><time>2026-03-23T14:31:52.108Z</time></trkpt><trkpt lat="43.4612935" lon="11.851016"><ele>246.0</ele><time>2026-03-23T14:31:53.107Z</time></trkpt><trkpt lat="43.461381" lon="11.8509935"><ele>246.4</ele><time>2026-03-23T14:31:54.105Z</time></trkpt><trkpt lat="43.4614655" lon="11.8509754"><ele>246.8</ele><time>2026-03-23T14:31:55.105Z</time></trkpt><trkpt lat="43.4615501" lon="11.850951"><ele>247.20000000000002</ele><time>2026-03-23T14:31:56.108Z</time></trkpt><trkpt lat="43.4616403" lon="11.8509224"><ele>247.60000000000002</ele><time>2026-03-23T14:31:57.105Z</time></trkpt><trkpt lat="43.4617327" lon="11.8508986"><ele>248.0</ele><time>2026-03-23T14:31:58.112Z</time></trkpt><trkpt lat="43.4618237" lon="11.8508713"><ele>248.0</ele><time>2026-03-23T14:31:59.12Z</time></trkpt><trkpt lat="43.4619115" lon="11.8508479"><ele>248.0</ele><time>2026-03-23T14:32:00.109Z</time></trkpt><trkpt lat="43.4620067" lon="11.8508235"><ele>248.0</ele><time>2026-03-23T14:32:01.099Z</time></trkpt><trkpt lat="43.4621078" lon="11.8507926"><ele>248.0</ele><time>2026-03-23T14:32:02.104Z</time></trkpt><trkpt lat="43.4622123" lon="11.8507615"><ele>248.0</ele><time>2026-03-23T14:32:03.104Z</time></trkpt><trkpt lat="43.4623177" lon="11.850732"><ele>248.2</ele><time>2026-03-23T14:32:04.1Z</time></trkpt><trkpt lat="43.4624256" lon="11.850705"><ele>248.4</ele><time>2026-03-23T14:32:05.099Z</time></trkpt><trkpt lat="43.4625297" lon="11.8506802"><ele>248.59999999999997</ele><time>2026-03-23T14:32:06.1Z</time></trkpt><trkpt lat="43.4626307" lon="11.8506558"><ele>248.79999999999998</ele><time>2026-03-23T14:32:07.099Z</time></trkpt><trkpt lat="43.4627264" lon="11.8506414"><ele>249.0</ele><time>2026-03-23T14:32:08.089Z</time></trkpt><trkpt lat="43.4628002" lon="11.8506354"><ele>249.0</ele><time>2026-03-23T14:32:09.101Z</time></trkpt><trkpt lat="43.4628853" lon="11.8506396"><ele>248.99999999999997</ele><time>2026-03-23T14:32:11.082Z</time></trkpt><trkpt lat="43.4629591" lon="11.8506589"><ele>248.99999999999997</ele><time>2026-03-23T14:32:15.099Z</time></trkpt><trkpt lat="43.4630206" lon="11.850707"><ele>249.0</ele><time>2026-03-23T14:32:23.107Z</time></trkpt><trkpt lat="43.4631335" lon="11.8508591"><ele>249.0</ele><time>2026-03-23T14:32:25.104Z</time></trkpt><trkpt lat="43.4632057" lon="11.8510018"><ele>248.33333333333331</ele><time>2026-03-23T14:32:26.098Z</time></trkpt><trkpt lat="43.4632602" lon="11.851187"><ele>247.66666666666666</ele><time>2026-03-23T14:32:27.107Z</time></trkpt><trkpt lat="43.4632904" lon="11.8514118"><ele>247.0</ele><time>2026-03-23T14:32:28.102Z</time></trkpt><trkpt lat="43.4632981" lon="11.851683"><ele>247.66666666666666</ele><time>2026-03-23T14:32:29.093Z</time></trkpt><trkpt lat="43.4633149" lon="11.851903"><ele>248.33333333333331</ele><time>2026-03-23T14:32:30.117Z</time></trkpt><trkpt lat="43.4633367" lon="11.8521057"><ele>249.0</ele><time>2026-03-23T14:32:31.095Z</time></trkpt><trkpt lat="43.4633586" lon="11.8522972"><ele>249.0</ele><time>2026-03-23T14:32:32.098Z</time></trkpt><trkpt lat="43.4633833" lon="11.8525004"><ele>249.0</ele><time>2026-03-23T14:32:33.091Z</time></trkpt><trkpt lat="43.4633938" lon="11.8526984"><ele>249.0</ele><time>2026-03-23T14:32:34.098Z</time></trkpt><trkpt lat="43.4634071" lon="11.8528847"><ele>249.0</ele><time>2026-03-23T14:32:35.102Z</time></trkpt><trkpt lat="43.4634205" lon="11.8530506"><ele>248.83333333333334</ele><time>2026-03-23T14:32:36.091Z</time></trkpt><trkpt lat="43.4634368" lon="11.8531988"><ele>248.66666666666669</ele><time>2026-03-23T14:32:37.092Z</time></trkpt><trkpt lat="43.4634428" lon="11.8533308"><ele>248.5</ele><time>2026-03-23T14:32:38.1Z</time></trkpt><trkpt lat="43.4634457" lon="11.853442"><ele>248.33333333333334</ele><time>2026-03-23T14:32:39.099Z</time></trkpt><trkpt lat="43.4634575" lon="11.8535321"><ele>248.16666666666669</ele><time>2026-03-23T14:32:40.087Z</time></trkpt><trkpt lat="43.4634727" lon="11.8536448"><ele>248.0</ele><time>2026-03-23T14:32:42.101Z</time></trkpt><trkpt lat="43.4635773" lon="11.8536213"><ele>248.0</ele><time>2026-03-23T14:32:44.099Z</time></trkpt><trkpt lat="43.4636833" lon="11.8535831"><ele>248.0</ele><time>2026-03-23T14:32:45.091Z</time></trkpt><trkpt lat="43.4638322" lon="11.8535392"><ele>248.0</ele><time>2026-03-23T14:32:46.101Z</time></trkpt><trkpt lat="43.4639895" lon="11.8534958"><ele>248.0</ele><time>2026-03-23T14:32:47.091Z</time></trkpt><trkpt lat="43.4641189" lon="11.8534695"><ele>248.0</ele><time>2026-03-23T14:32:48.085Z</time></trkpt><trkpt lat="43.46422" lon="11.8534475"><ele>248.0</ele><time>2026-03-23T14:32:49.091Z</time></trkpt><trkpt lat="43.4643087" lon="11.8534484"><ele>248.0</ele><time>2026-03-23T14:32:50.084Z</time></trkpt><trkpt lat="43.4643878" lon="11.8534467"><ele>248.0</ele><time>2026-03-23T14:32:52.084Z</time></trkpt><trkpt lat="43.4644281" lon="11.8533586"><ele>248.0</ele><time>2026-03-23T14:32:54.087Z</time></trkpt><trkpt lat="43.4644285" lon="11.853189"><ele>248.0</ele><time>2026-03-23T14:32:56.096Z</time></trkpt><trkpt lat="43.4644623" lon="11.8530698"><ele>248.00000000000003</ele><time>2026-03-23T14:32:58.105Z</time></trkpt><trkpt lat="43.4645365" lon="11.8530588"><ele>248.0</ele><time>2026-03-23T14:32:59.089Z</time></trkpt><trkpt lat="43.4646147" lon="11.8530589"><ele>248.0</ele><time>2026-03-23T14:33:00.082Z</time></trkpt><trkpt lat="43.4646795" lon="11.8530506"><ele>248.00000000000003</ele><time>2026-03-23T14:33:01.113Z</time></trkpt><trkpt lat="43.4647338" lon="11.8529961"><ele>248.0</ele><time>2026-03-23T14:33:02.099Z</time></trkpt><trkpt lat="43.4647527" lon="11.8529066"><ele>248.0</ele><time>2026-03-23T14:33:03.095Z</time></trkpt><trkpt lat="43.4647453" lon="11.8527787"><ele>247.5</ele><time>2026-03-23T14:33:04.098Z</time></trkpt><trkpt lat="43.4647247" lon="11.8526168"><ele>247.0</ele><time>2026-03-23T14:33:05.099Z</time></trkpt><trkpt lat="43.4647033" lon="11.852429"><ele>246.5</ele><time>2026-03-23T14:33:06.093Z</time></trkpt><trkpt lat="43.4646772" lon="11.8522327"><ele>246.0</ele><time>2026-03-23T14:33:07.093Z</time></trkpt><trkpt lat="43.4646536" lon="11.8520488"><ele>246.0</ele><time>2026-03-23T14:33:08.088Z</time></trkpt><trkpt lat="43.4646339" lon="11.8518709"><ele>246.0</ele><time>2026-03-23T14:33:09.085Z</time></trkpt><trkpt lat="43.4646133" lon="11.85171"><ele>246.0</ele><time>2026-03-23T14:33:10.083Z</time></trkpt><trkpt lat="43.4645976" lon="11.8515631"><ele>246.0</ele><time>2026-03-23T14:33:11.087Z</time></trkpt><trkpt lat="43.4645881" lon="11.8514342"><ele>246.16666666666666</ele><time>2026-03-23T14:33:12.095Z</time></trkpt><trkpt lat="43.4645739" lon="11.8513152"><ele>246.33333333333331</ele><time>2026-03-23T14:33:13.094Z</time></trkpt><trkpt lat="43.4645623" lon="11.8512157"><ele>246.5</ele><time>2026-03-23T14:33:14.108Z</time></trkpt><trkpt lat="43.4645855" lon="11.851121"><ele>246.66666666666666</ele><time>2026-03-23T14:33:16.108Z</time></trkpt><trkpt lat="43.4646712" lon="11.8511038"><ele>246.83333333333331</ele><time>2026-03-23T14:33:18.105Z</time></trkpt><trkpt lat="43.4647869" lon="11.8510919"><ele>247.0</ele><time>2026-03-23T14:33:20.088Z</time></trkpt><trkpt lat="43.4648465" lon="11.8510001"><ele>247.0</ele><time>2026-03-23T14:33:22.087Z</time></trkpt><trkpt lat="43.4648037" lon="11.8508815"><ele>247.0</ele><time>2026-03-23T14:33:24.094Z</time></trkpt><trkpt lat="43.4647014" lon="11.8508431"><ele>247.0</ele><time>2026-03-23T14:33:26.098Z</time></trkpt><trkpt lat="43.4645954" lon="11.850849"><ele>247.0</ele><time>2026-03-23T14:33:28.079Z</time></trkpt><trkpt lat="43.4644993" lon="11.8508634"><ele>247.0</ele><time>2026-03-23T14:33:30.052Z</time></trkpt><trkpt lat="43.4644128" lon="11.8508847"><ele>248.0</ele><time>2026-03-23T14:33:32.046Z</time></trkpt><trkpt lat="43.4643513" lon="11.8509084"><ele>248.0</ele><time>2026-03-23T14:33:34.015Z</time></trkpt></trkseg></trk></gpx>